Terminal Aerodrome Forecast
Issued by NWS Atlanta, GA

Home | Current Version | Previous Version | Text Only | Print | Product List | Glossary On
Versions: 1 2 3 4 5 6 7 8 9 10 11 12
000
FTUS42 KFFC 290500
TAFMCN
TAF
KMCN 290540Z 2906/3006 00000KT P6SM FEW250
     FM291600 18004KT P6SM FEW060 SCT250
     FM300000 00000KT P6SM SCT070 SCT250=

USA.gov is the U.S. government's official web portal to all federal, state and local government web resources and services.